Time;durP1;ratioP1;P1;durP2;ratioP2;P2;SDS_P1;SDS_P2;PMS_P1;PMS_P2;Temp;Humidity;BMP_temperature;BMP_pressure;BME280_temperature;BME280_humidity;BME280_pressure;Samples;Min_cycle;Max_cycle;Signal;HPM_P1;HPM_P2
2023/03/12 00:00:34;;;;;;;43.88;9.93;;;12.40;99.90;;;;;;4937107;28;20039;-71
2023/03/12 00:03:01;;;;;;;39.13;10.80;;;12.40;99.90;;;;;;4937610;29;20039;-70
2023/03/12 00:05:27;;;;;;;60.08;11.80;;;12.40;99.90;;;;;;4937158;29;20027;-70
2023/03/12 00:07:53;;;;;;;57.72;11.63;;;12.40;99.90;;;;;;4938620;29;20032;-71
2023/03/12 00:10:19;;;;;;;47.47;11.32;;;12.40;99.90;;;;;;4938306;29;20515;-71
2023/03/12 00:12:45;;;;;;;53.67;11.68;;;12.40;99.90;;;;;;4950694;29;20054;-70
2023/03/12 00:15:11;;;;;;;53.05;12.02;;;12.40;99.90;;;;;;4939099;28;20048;-70
2023/03/12 00:17:38;;;;;;;45.63;10.45;;;12.40;99.90;;;;;;4937964;29;20046;-71
2023/03/12 00:20:07;;;;;;;50.47;10.73;;;12.40;99.90;;;;;;4938357;29;20035;-71
2023/03/12 00:22:33;;;;;;;53.15;10.43;;;12.50;99.90;;;;;;4938333;29;20032;-71
2023/03/12 00:24:59;;;;;;;50.42;10.38;;;12.40;99.90;;;;;;4936798;29;20054;-71
2023/03/12 00:27:25;;;;;;;51.80;11.30;;;12.40;99.90;;;;;;4937261;29;20034;-70
2023/03/12 00:29:52;;;;;;;49.38;11.40;;;12.40;99.90;;;;;;4938053;29;20039;-71
2023/03/12 00:32:18;;;;;;;60.35;11.63;;;12.40;99.90;;;;;;4936820;28;20043;-71
2023/03/12 00:34:48;;;;;;;48.22;10.50;;;12.40;99.90;;;;;;4942175;29;20039;-71
2023/03/12 00:37:14;;;;;;;41.50;10.75;;;12.40;99.90;;;;;;4938160;29;20496;-71
2023/03/12 00:39:41;;;;;;;57.05;12.07;;;12.40;99.90;;;;;;4937884;29;20035;-71
2023/03/12 00:42:07;;;;;;;48.45;10.23;;;12.40;99.90;;;;;;4936847;29;20396;-71
2023/03/12 00:44:33;;;;;;;54.83;11.35;;;12.40;99.90;;;;;;4928731;29;20046;-71
2023/03/12 00:46:59;;;;;;;55.60;11.85;;;12.40;99.90;;;;;;4924164;28;20040;-71
2023/03/12 00:49:25;;;;;;;51.50;12.00;;;12.30;99.90;;;;;;4918963;29;20465;-71
2023/03/12 00:51:51;;;;;;;53.08;12.57;;;12.30;99.90;;;;;;4918983;29;20032;-71
2023/03/12 00:54:17;;;;;;;52.78;11.77;;;12.30;99.90;;;;;;4934627;29;20040;-70
2023/03/12 00:56:45;;;;;;;51.50;11.75;;;12.20;99.90;;;;;;4937578;29;20036;-71
2023/03/12 00:59:12;;;;;;;47.53;12.38;;;12.20;99.90;;;;;;4938308;29;20051;-71
2023/03/12 01:01:38;;;;;;;52.58;11.13;;;12.20;99.90;;;;;;4936293;28;20044;-71
2023/03/12 01:04:04;;;;;;;50.50;11.25;;;12.20;99.90;;;;;;4937456;29;20400;-71
2023/03/12 01:06:31;;;;;;;57.63;11.88;;;12.20;99.90;;;;;;4936220;29;20042;-70
2023/03/12 01:08:57;;;;;;;38.40;11.32;;;12.20;99.90;;;;;;4937556;29;20027;-71
2023/03/12 01:11:23;;;;;;;46.95;11.38;;;12.10;99.90;;;;;;4937391;29;20047;-71
2023/03/12 01:13:49;;;;;;;48.35;10.82;;;12.10;99.90;;;;;;4934993;29;20036;-71
2023/03/12 01:16:15;;;;;;;52.30;10.95;;;12.00;99.90;;;;;;4928267;28;20052;-71
2023/03/12 01:18:41;;;;;;;46.78;10.75;;;12.00;99.90;;;;;;4935584;29;20059;-70
2023/03/12 01:21:07;;;;;;;51.63;10.85;;;12.00;99.90;;;;;;4937154;29;20031;-70
2023/03/12 01:23:33;;;;;;;51.95;10.02;;;12.00;99.90;;;;;;4936975;29;20051;-71
2023/03/12 01:26:00;;;;;;;51.13;10.77;;;12.00;99.90;;;;;;4937464;29;20028;-71
2023/03/12 01:28:26;;;;;;;48.20;9.48;;;11.90;99.90;;;;;;4936001;29;20417;-71
2023/03/12 01:30:52;;;;;;;63.95;10.93;;;12.00;99.90;;;;;;4935544;28;20035;-71
2023/03/12 01:33:21;;;;;;;47.47;11.20;;;12.00;99.90;;;;;;4942034;29;20035;-71
2023/03/12 01:35:47;;;;;;;43.17;10.20;;;12.00;99.90;;;;;;4956092;28;20035;-71
2023/03/12 01:38:14;;;;;;;56.17;10.90;;;12.00;99.90;;;;;;4956082;29;20031;-71
2023/03/12 01:40:41;;;;;;;57.55;10.13;;;12.00;99.90;;;;;;4955045;29;20031;-70
2023/03/12 01:43:30;;;;;;;51.92;10.57;;;12.00;99.90;;;;;;4945923;29;20036;-71
2023/03/12 01:46:05;;;;;;;45.05;9.77;;;12.00;99.90;;;;;;4936329;28;20039;-69
2023/03/12 01:48:40;;;;;;;58.53;9.85;;;12.00;99.90;;;;;;4936953;29;20031;-69
2023/03/12 01:51:07;;;;;;;56.88;10.68;;;12.00;99.90;;;;;;4935614;29;20024;-69
2023/03/12 01:53:33;;;;;;;54.58;9.18;;;11.90;99.90;;;;;;4935263;29;20031;-69
2023/03/12 01:55:59;;;;;;;39.42;9.43;;;11.90;99.90;;;;;;4936977;29;20035;-69
2023/03/12 01:58:26;;;;;;;55.45;11.00;;;11.80;99.90;;;;;;4934642;29;20047;-69
2023/03/12 02:00:52;;;;;;;62.38;11.23;;;11.80;99.90;;;;;;4919162;29;20448;-69
2023/03/12 02:03:18;;;;;;;45.42;10.05;;;11.80;99.90;;;;;;4932413;29;20063;-69
2023/03/12 02:05:55;;;;;;;53.00;9.95;;;11.80;99.90;;;;;;4928469;29;20453;-69
2023/03/12 02:08:21;;;;;;;44.15;9.43;;;11.80;99.90;;;;;;4932897;29;20039;-69
2023/03/12 02:10:47;;;;;;;50.22;10.48;;;11.70;99.90;;;;;;4919363;29;20055;-69
2023/03/12 02:13:13;;;;;;;52.65;9.60;;;11.70;99.90;;;;;;4937033;29;20393;-69
2023/03/12 02:15:39;;;;;;;48.78;9.82;;;11.70;99.90;;;;;;4934535;29;20038;-69
2023/03/12 02:18:07;;;;;;;65.68;10.75;;;11.70;99.90;;;;;;4919298;29;20024;-69
2023/03/12 02:20:35;;;;;;;52.83;11.18;;;11.80;99.90;;;;;;4934882;29;20027;-70
2023/03/12 02:23:09;;;;;;;56.08;10.70;;;11.80;99.90;;;;;;4935025;29;20020;-69
2023/03/12 02:25:39;;;;;;;43.28;9.85;;;11.80;99.90;;;;;;4936016;29;20476;-69
2023/03/12 02:28:08;;;;;;;49.88;10.38;;;11.80;99.90;;;;;;4919526;29;20465;-69
2023/03/12 02:30:34;;;;;;;51.13;11.75;;;11.80;99.90;;;;;;4935616;28;20023;-70
2023/03/12 02:33:01;;;;;;;54.78;10.50;;;11.80;99.90;;;;;;4937416;29;20401;-69
2023/03/12 02:35:28;;;;;;;55.33;10.65;;;11.80;99.90;;;;;;4947219;29;20039;-69
2023/03/12 02:37:54;;;;;;;49.03;10.95;;;11.70;99.90;;;;;;4935172;29;20039;-69
2023/03/12 02:40:53;;;;;;;55.72;11.48;;;11.70;99.90;;;;;;4935931;29;20426;-69
2023/03/12 02:43:20;;;;;;;46.70;10.45;;;11.70;99.90;;;;;;4916693;29;20060;-69
2023/03/12 02:45:46;;;;;;;43.15;10.48;;;11.70;99.90;;;;;;4908867;29;20044;-70
2023/03/12 02:48:12;;;;;;;50.85;9.90;;;11.60;99.90;;;;;;4915138;29;20039;-69
2023/03/12 02:50:38;;;;;;;60.28;11.13;;;11.60;99.90;;;;;;4933747;29;20079;-69
2023/03/12 02:53:04;;;;;;;54.17;11.40;;;11.50;99.90;;;;;;4932319;29;20556;-69
2023/03/12 02:55:30;;;;;;;50.10;11.18;;;11.60;99.90;;;;;;4932515;29;20521;-69
2023/03/12 02:57:56;;;;;;;61.42;11.45;;;11.60;99.90;;;;;;4917329;29;20048;-69
2023/03/12 03:00:22;;;;;;;47.95;10.73;;;11.60;99.90;;;;;;4932757;29;20505;-69
2023/03/12 03:02:49;;;;;;;47.67;10.52;;;11.60;99.90;;;;;;4933169;29;20047;-69
2023/03/12 03:05:15;;;;;;;52.78;10.77;;;11.50;99.90;;;;;;4916790;29;20633;-69
2023/03/12 03:07:41;;;;;;;54.15;11.10;;;11.40;99.90;;;;;;4932123;29;20036;-69
2023/03/12 03:10:07;;;;;;;71.18;11.18;;;11.40;99.90;;;;;;4932734;29;20390;-69
2023/03/12 03:12:34;;;;;;;43.30;10.50;;;11.30;99.90;;;;;;4927701;29;20496;-69
2023/03/12 03:15:00;;;;;;;61.78;10.30;;;11.40;99.90;;;;;;4952002;29;20046;-69
2023/03/12 03:17:26;;;;;;;57.30;10.38;;;11.40;99.90;;;;;;4932104;29;20044;-69
2023/03/12 03:19:52;;;;;;;58.92;9.73;;;11.40;99.90;;;;;;4935014;29;20052;-69
2023/03/12 03:22:19;;;;;;;50.55;10.07;;;11.40;99.90;;;;;;4934492;29;20370;-69
2023/03/12 03:24:45;;;;;;;52.72;9.43;;;11.40;99.90;;;;;;4933991;29;20052;-69
2023/03/12 03:27:11;;;;;;;52.70;9.50;;;11.40;99.90;;;;;;4928144;29;20050;-70
2023/03/12 03:29:37;;;;;;;64.82;11.70;;;11.40;99.90;;;;;;4927227;29;20051;-69
2023/03/12 03:32:04;;;;;;;59.30;11.50;;;11.40;99.90;;;;;;4926826;28;20054;-69
2023/03/12 03:34:30;;;;;;;45.92;10.00;;;11.40;99.90;;;;;;4949440;29;20477;-69
2023/03/12 03:36:56;;;;;;;45.90;9.68;;;11.40;99.90;;;;;;4932462;29;20103;-70
2023/03/12 03:39:24;;;;;;;41.20;10.52;;;11.40;99.90;;;;;;4935087;29;20040;-69
2023/03/12 03:41:51;;;;;;;49.60;10.35;;;11.50;99.90;;;;;;4933572;29;20477;-69
2023/03/12 03:44:17;;;;;;;43.88;10.23;;;11.40;99.90;;;;;;4935069;29;20124;-69
2023/03/12 03:46:43;;;;;;;42.67;9.20;;;11.40;99.90;;;;;;4933995;28;20381;-69
2023/03/12 03:49:09;;;;;;;58.80;9.80;;;11.40;99.90;;;;;;4935156;29;20036;-69
2023/03/12 03:51:35;;;;;;;53.90;10.05;;;11.40;99.90;;;;;;4934160;29;20032;-69
2023/03/12 03:54:02;;;;;;;44.60;9.27;;;11.30;99.90;;;;;;4935137;29;20047;-71
2023/03/12 03:56:28;;;;;;;43.38;8.88;;;11.30;99.90;;;;;;4934270;29;20088;-69
2023/03/12 03:58:54;;;;;;;46.88;8.75;;;11.20;99.90;;;;;;4934868;29;20040;-71
2023/03/12 04:01:20;;;;;;;45.00;9.55;;;11.10;99.90;;;;;;4934136;28;20047;-69
2023/03/12 04:03:46;;;;;;;44.35;9.48;;;11.10;99.90;;;;;;4934336;29;20043;-71
2023/03/12 04:06:12;;;;;;;37.42;9.32;;;11.00;99.90;;;;;;4933578;29;20047;-69
2023/03/12 04:08:39;;;;;;;44.67;9.77;;;11.00;99.90;;;;;;4933861;29;20024;-69
2023/03/12 04:11:09;;;;;;;46.92;9.65;;;11.10;99.90;;;;;;4934485;29;20047;-69
2023/03/12 04:13:35;;;;;;;36.53;9.63;;;11.10;99.90;;;;;;4953399;29;20028;-69
2023/03/12 04:16:01;;;;;;;48.97;9.38;;;11.10;99.90;;;;;;4946722;28;20035;-69
2023/03/12 04:18:28;;;;;;;55.30;9.60;;;11.00;99.90;;;;;;4933605;29;20039;-70
2023/03/12 04:20:54;;;;;;;43.40;9.02;;;11.10;99.90;;;;;;4934534;29;20039;-69
2023/03/12 04:23:20;;;;;;;53.60;9.38;;;11.00;99.90;;;;;;4917661;29;20040;-69
2023/03/12 04:25:46;;;;;;;51.53;8.73;;;11.00;99.90;;;;;;4919190;29;20047;-69
2023/03/12 04:28:12;;;;;;;48.60;8.93;;;10.90;99.90;;;;;;4933144;29;20032;-69
2023/03/12 04:30:38;;;;;;;47.38;9.40;;;10.90;99.90;;;;;;4933270;28;20032;-69
2023/03/12 04:33:05;;;;;;;47.85;9.15;;;10.90;99.90;;;;;;4934285;29;20039;-69
2023/03/12 04:35:31;;;;;;;44.53;9.02;;;10.90;99.90;;;;;;4932836;29;20055;-69
2023/03/12 04:37:57;;;;;;;52.67;9.57;;;10.90;99.90;;;;;;4934044;29;20044;-69
2023/03/12 04:40:23;;;;;;;47.40;9.73;;;10.90;99.90;;;;;;4934306;29;20035;-69
2023/03/12 04:42:49;;;;;;;47.00;8.23;;;11.00;99.90;;;;;;4934606;29;20031;-69
2023/03/12 04:45:16;;;;;;;58.30;11.73;;;11.00;99.90;;;;;;4932744;28;20044;-69
2023/03/12 04:47:42;;;;;;;47.53;9.73;;;10.90;99.90;;;;;;4936769;29;20032;-69
2023/03/12 04:50:09;;;;;;;52.42;9.75;;;10.90;99.90;;;;;;4937924;29;20036;-69
2023/03/12 04:52:35;;;;;;;56.63;10.10;;;11.00;99.90;;;;;;4937564;29;20032;-69
2023/03/12 04:55:01;;;;;;;58.00;9.75;;;11.00;99.90;;;;;;4937875;29;20032;-69
2023/03/12 04:57:27;;;;;;;47.88;9.75;;;11.00;99.90;;;;;;4937703;29;20492;-69
2023/03/12 04:59:53;;;;;;;56.17;9.93;;;11.00;99.90;;;;;;4936458;29;20031;-69
2023/03/12 05:02:19;;;;;;;55.17;10.13;;;11.00;99.90;;;;;;4937039;28;20036;-71
2023/03/12 05:04:45;;;;;;;52.28;9.88;;;11.10;99.90;;;;;;4933468;29;20048;-69
2023/03/12 05:07:11;;;;;;;53.78;10.02;;;11.10;99.90;;;;;;4938136;29;20047;-69
2023/03/12 05:09:37;;;;;;;40.90;8.80;;;11.10;99.90;;;;;;4936334;29;20052;-71
2023/03/12 05:12:04;;;;;;;45.92;8.52;;;11.20;99.90;;;;;;4944151;29;20031;-71
2023/03/12 05:14:30;;;;;;;47.80;8.98;;;11.30;99.90;;;;;;4940315;28;20043;-71
2023/03/12 05:16:56;;;;;;;54.53;8.98;;;11.30;99.90;;;;;;4934617;28;20062;-71
2023/03/12 05:19:22;;;;;;;152.82;15.60;;;11.20;99.90;;;;;;4937349;29;20031;-71
2023/03/12 05:21:48;;;;;;;45.22;8.73;;;11.20;99.90;;;;;;4937327;29;20051;-71
2023/03/12 05:24:15;;;;;;;48.47;9.82;;;11.30;99.90;;;;;;4937243;29;20043;-71
2023/03/12 05:26:41;;;;;;;54.50;9.52;;;11.30;99.90;;;;;;4937099;29;20040;-72
2023/03/12 05:29:07;;;;;;;44.00;9.18;;;11.30;99.90;;;;;;4936234;29;20042;-71
2023/03/12 05:31:34;;;;;;;51.10;9.48;;;11.20;99.90;;;;;;4936497;28;20032;-71
2023/03/12 05:34:03;;;;;;;85.30;10.57;;;11.20;99.90;;;;;;4947416;29;20039;-71
2023/03/12 05:36:29;;;;;;;53.42;10.00;;;11.20;99.90;;;;;;4956450;28;20046;-71
2023/03/12 05:38:55;;;;;;;47.33;8.23;;;11.20;99.90;;;;;;4956188;29;20035;-71
2023/03/12 05:41:23;;;;;;;56.90;9.75;;;11.30;99.90;;;;;;4954891;29;20038;-71
2023/03/12 05:43:50;;;;;;;50.88;9.27;;;11.20;99.90;;;;;;4939143;29;20028;-71
2023/03/12 05:46:16;;;;;;;49.58;8.95;;;11.20;99.90;;;;;;4936204;28;20040;-71
2023/03/12 05:48:42;;;;;;;514.40;60.08;;;11.10;99.90;;;;;;4936624;29;20401;-72
2023/03/12 05:51:08;;;;;;;47.47;8.02;;;11.20;99.90;;;;;;4936787;29;20035;-71
2023/03/12 05:53:35;;;;;;;65.93;9.18;;;11.10;99.90;;;;;;4937073;29;20389;-71
2023/03/12 05:56:05;;;;;;;62.75;9.70;;;11.10;99.90;;;;;;4936816;29;20040;-70
2023/03/12 05:58:31;;;;;;;48.92;8.85;;;11.10;99.90;;;;;;4935192;29;20023;-71
2023/03/12 06:00:57;;;;;;;49.00;9.07;;;11.10;99.90;;;;;;4935342;28;20040;-71
2023/03/12 06:03:23;;;;;;;48.47;9.68;;;11.00;99.90;;;;;;4934851;29;20047;-71
2023/03/12 06:05:53;;;;;;;98.90;11.73;;;11.00;99.90;;;;;;4936607;29;20499;-71
2023/03/12 06:08:21;;;;;;;53.03;8.98;;;10.90;99.90;;;;;;4936393;29;20033;-71
2023/03/12 06:10:50;;;;;;;61.83;9.27;;;10.90;99.90;;;;;;4936316;29;20059;-71
2023/03/12 06:13:16;;;;;;;45.63;8.93;;;10.90;99.90;;;;;;4952793;29;20039;-71
2023/03/12 06:15:42;;;;;;;61.70;9.57;;;11.00;99.90;;;;;;4955140;28;20539;-71
2023/03/12 06:18:08;;;;;;;53.25;9.27;;;11.00;99.90;;;;;;4942161;29;20036;-71
2023/03/12 06:20:34;;;;;;;48.63;9.27;;;11.00;99.90;;;;;;4935896;29;20039;-71
2023/03/12 06:23:00;;;;;;;51.67;8.80;;;11.00;99.90;;;;;;4936312;29;20048;-71
2023/03/12 06:25:26;;;;;;;46.53;9.18;;;11.00;99.90;;;;;;4935711;29;20054;-71
2023/03/12 06:27:52;;;;;;;59.95;9.55;;;11.00;99.90;;;;;;4936340;29;20381;-71
2023/03/12 06:30:18;;;;;;;52.38;8.43;;;11.00;99.90;;;;;;4935683;28;20047;-71
2023/03/12 06:32:44;;;;;;;53.10;9.32;;;11.10;99.90;;;;;;4936026;29;20036;-71
2023/03/12 06:35:10;;;;;;;62.05;8.93;;;11.10;99.90;;;;;;4955304;29;20035;-71
2023/03/12 06:37:36;;;;;;;52.53;8.82;;;11.20;99.90;;;;;;4955051;29;20034;-71
2023/03/12 06:40:03;;;;;;;49.03;9.07;;;11.20;99.90;;;;;;4955322;28;20043;-70
2023/03/12 06:42:30;;;;;;;63.92;9.57;;;11.10;99.90;;;;;;4955186;29;20027;-71
2023/03/12 06:44:56;;;;;;;52.00;9.63;;;11.10;99.90;;;;;;4954928;29;20047;-71
2023/03/12 06:47:22;;;;;;;49.83;9.50;;;11.10;99.90;;;;;;4947832;28;20047;-70
2023/03/12 06:49:48;;;;;;;55.22;9.27;;;11.10;99.90;;;;;;4935788;29;20039;-71
2023/03/12 06:52:14;;;;;;;62.53;10.23;;;11.10;99.90;;;;;;4935613;29;20046;-71
2023/03/12 06:54:40;;;;;;;49.88;9.48;;;11.10;99.90;;;;;;4935964;29;20047;-71
2023/03/12 06:57:06;;;;;;;47.53;9.60;;;11.10;99.90;;;;;;4935567;29;20031;-71
2023/03/12 06:59:32;;;;;;;52.03;10.00;;;11.20;99.90;;;;;;4935627;29;20039;-71
2023/03/12 07:01:58;;;;;;;53.97;9.82;;;11.10;99.90;;;;;;4934284;28;20032;-71
2023/03/12 07:04:24;;;;;;;59.53;10.65;;;11.20;99.90;;;;;;4935515;29;20047;-71
2023/03/12 07:06:50;;;;;;;59.80;9.85;;;11.20;99.90;;;;;;4935522;29;20051;-71
2023/03/12 07:09:17;;;;;;;41.38;9.25;;;11.30;99.90;;;;;;4934395;29;20037;-71
2023/03/12 07:11:43;;;;;;;49.50;9.85;;;11.30;99.90;;;;;;4939221;29;20035;-71
2023/03/12 07:14:09;;;;;;;48.33;9.90;;;11.30;99.90;;;;;;4954436;29;20116;-71
2023/03/12 07:16:35;;;;;;;52.45;9.57;;;11.40;99.90;;;;;;4949057;28;20040;-71
2023/03/12 07:19:02;;;;;;;46.70;9.82;;;11.40;99.90;;;;;;4935354;29;20058;-71
2023/03/12 07:21:30;;;;;;;56.17;9.32;;;11.30;99.90;;;;;;4934228;29;20040;-72
2023/03/12 07:23:56;;;;;;;58.00;10.73;;;11.40;99.90;;;;;;4934104;29;20038;-72
2023/03/12 07:26:22;;;;;;;137.40;16.83;;;11.50;99.90;;;;;;4935147;29;20036;-72
2023/03/12 07:28:48;;;;;;;41.80;10.20;;;11.70;99.90;;;;;;4935415;29;20024;-72
2023/03/12 07:31:14;;;;;;;51.15;9.45;;;11.70;99.90;;;;;;4933938;28;20386;-72
2023/03/12 07:33:40;;;;;;;43.10;10.48;;;11.80;99.90;;;;;;4937156;29;20032;-71
2023/03/12 07:36:07;;;;;;;49.92;9.77;;;11.80;99.90;;;;;;4933043;29;20480;-72
2023/03/12 07:38:33;;;;;;;50.42;10.88;;;11.80;99.90;;;;;;4931079;29;20040;-71
2023/03/12 07:40:59;;;;;;;41.25;9.32;;;11.80;99.90;;;;;;4931641;29;20040;-72
2023/03/12 07:43:25;;;;;;;39.72;10.45;;;11.80;99.90;;;;;;4933216;29;20051;-72
2023/03/12 07:45:52;;;;;;;46.45;10.43;;;11.90;99.90;;;;;;4933242;29;20112;-72
2023/03/12 07:48:18;;;;;;;43.78;10.50;;;12.00;99.90;;;;;;4933377;29;20028;-72
2023/03/12 07:50:45;;;;;;;35.53;10.13;;;12.20;99.90;;;;;;4935288;29;20055;-71
2023/03/12 07:53:11;;;;;;;44.40;9.77;;;12.20;99.90;;;;;;4933372;29;20046;-72
2023/03/12 07:55:37;;;;;;;37.90;9.57;;;12.30;99.90;;;;;;4934883;29;20362;-72
2023/03/12 07:58:03;;;;;;;36.63;10.30;;;12.40;99.90;;;;;;4933197;29;20031;-71
2023/03/12 08:00:29;;;;;;;42.42;11.63;;;12.50;99.90;;;;;;4934303;28;20035;-72
2023/03/12 08:02:55;;;;;;;35.83;11.30;;;12.60;99.90;;;;;;4935030;29;20039;-71
2023/03/12 08:05:23;;;;;;;35.70;10.27;;;12.60;99.90;;;;;;4931062;29;20047;-72
2023/03/12 08:07:51;;;;;;;44.50;9.82;;;12.60;99.90;;;;;;4932197;29;20051;-72
2023/03/12 08:10:17;;;;;;;44.90;10.68;;;12.50;99.90;;;;;;4934435;29;20052;-71
2023/03/12 08:12:43;;;;;;;53.10;10.50;;;12.40;99.90;;;;;;4934649;29;20031;-71
2023/03/12 08:15:11;;;;;;;47.95;11.35;;;12.40;99.90;;;;;;4933567;28;20027;-71
2023/03/12 08:17:38;;;;;;;44.70;11.35;;;12.30;99.90;;;;;;4931873;29;20429;-72
2023/03/12 08:20:08;;;;;;;40.28;10.68;;;12.30;99.90;;;;;;4924323;29;20036;-72
2023/03/12 08:22:38;;;;;;;32.22;10.02;;;12.30;99.90;;;;;;4936880;29;20501;-72
2023/03/12 08:25:04;;;;;;;37.72;11.13;;;12.30;99.90;;;;;;4919311;29;20051;-72
2023/03/12 08:27:30;;;;;;;48.25;11.75;;;12.30;99.90;;;;;;4934789;29;20036;-71
2023/03/12 08:29:57;;;;;;;44.25;10.77;;;12.30;99.90;;;;;;4937110;29;20047;-72
2023/03/12 08:32:23;;;;;;;41.03;10.10;;;12.40;99.90;;;;;;4936897;29;20044;-72
2023/03/12 08:34:49;;;;;;;47.28;11.02;;;12.50;99.90;;;;;;4952623;29;20034;-72
2023/03/12 08:37:15;;;;;;;42.15;10.38;;;12.60;99.90;;;;;;4935531;29;20051;-72
2023/03/12 08:39:41;;;;;;;37.60;10.63;;;12.60;99.90;;;;;;4936651;29;20032;-71
2023/03/12 08:42:07;;;;;;;35.75;10.23;;;12.60;99.90;;;;;;4933918;29;20038;-72
2023/03/12 08:44:33;;;;;;;43.80;9.48;;;12.60;99.90;;;;;;4932773;29;20067;-71
2023/03/12 08:47:00;;;;;;;35.88;9.05;;;12.50;99.90;;;;;;4932492;28;20032;-72
2023/03/12 08:49:26;;;;;;;33.70;9.82;;;12.60;99.90;;;;;;4929364;29;20036;-72
2023/03/12 08:51:52;;;;;;;39.78;9.85;;;12.60;99.90;;;;;;4931994;29;20036;-72
2023/03/12 08:54:19;;;;;;;44.08;10.35;;;12.60;99.90;;;;;;4935087;29;20389;-72
2023/03/12 08:56:50;;;;;;;36.65;10.40;;;12.60;99.90;;;;;;4936492;29;20035;-72
2023/03/12 08:59:17;;;;;;;41.50;10.95;;;12.60;99.90;;;;;;4935403;29;20031;-72
2023/03/12 09:01:43;;;;;;;34.17;10.30;;;12.70;99.90;;;;;;4930479;28;20270;-72
2023/03/12 09:04:09;;;;;;;35.60;9.52;;;12.60;99.90;;;;;;4935413;29;20499;-72
2023/03/12 09:06:37;;;;;;;35.08;9.18;;;12.60;99.90;;;;;;4932035;29;20038;-72
2023/03/12 09:09:07;;;;;;;37.35;10.57;;;12.70;99.90;;;;;;4931020;29;20027;-71
2023/03/12 09:11:34;;;;;;;34.47;10.10;;;12.70;99.90;;;;;;4926096;29;20035;-71
2023/03/12 09:14:00;;;;;;;29.50;8.88;;;12.80;99.90;;;;;;4933400;29;20036;-71
2023/03/12 09:16:26;;;;;;;40.58;8.95;;;13.00;99.90;;;;;;4929537;28;20043;-72
2023/03/12 09:18:53;;;;;;;40.72;10.73;;;13.20;99.90;;;;;;4936790;29;20083;-72
2023/03/12 09:21:19;;;;;;;36.10;9.23;;;13.40;99.90;;;;;;4949573;29;20758;-72
2023/03/12 09:23:46;;;;;;;35.90;8.55;;;13.60;99.90;;;;;;4934044;29;20046;-72
2023/03/12 09:26:12;;;;;;;29.80;8.95;;;13.80;99.90;;;;;;4928728;29;20504;-72
2023/03/12 09:28:38;;;;;;;33.95;8.82;;;14.00;99.90;;;;;;4932546;29;20027;-71
2023/03/12 09:31:04;;;;;;;32.83;8.88;;;14.10;99.90;;;;;;4928097;28;20063;-72
2023/03/12 09:33:32;;;;;;;24.40;8.25;;;14.10;99.90;;;;;;4935344;29;20024;-72
2023/03/12 09:35:58;;;;;;;32.70;8.00;;;14.20;99.90;;;;;;4928111;29;20067;-72
2023/03/12 09:38:25;;;;;;;28.98;8.00;;;14.20;99.90;;;;;;4932840;28;20047;-71
2023/03/12 09:40:51;;;;;;;31.25;9.20;;;14.30;99.90;;;;;;4933247;29;20043;-72
2023/03/12 09:43:25;;;;;;;26.67;8.98;;;14.30;99.90;;;;;;4934183;29;20034;-72
2023/03/12 09:45:51;;;;;;;28.70;8.52;;;14.30;99.90;;;;;;4918947;29;20413;-72
2023/03/12 09:48:37;;;;;;;29.98;8.13;;;14.40;99.90;;;;;;4935619;29;20035;-72
2023/03/12 09:51:28;;;;;;;32.05;8.68;;;14.40;99.90;;;;;;4935000;29;20047;-72
2023/03/12 09:53:56;;;;;;;34.05;9.77;;;14.40;99.90;;;;;;4931854;29;20051;-72
2023/03/12 09:56:22;;;;;;;29.50;7.78;;;14.40;99.90;;;;;;4934968;29;20046;-72
2023/03/12 09:58:50;;;;;;;31.48;9.25;;;14.60;99.90;;;;;;4934883;29;20023;-71
2023/03/12 10:01:43;;;;;;;33.33;8.85;;;14.60;99.90;;;;;;4932799;28;20047;-72
2023/03/12 10:04:24;;;;;;;30.92;7.93;;;14.70;99.90;;;;;;4933837;29;20031;-71
2023/03/12 10:06:53;;;;;;;;;;;14.60;99.90;;;;;;4934270;29;20401;-72
2023/03/12 10:09:22;;;;;;;26.63;9.07;;;14.60;99.90;;;;;;4935844;29;19926;-72
2023/03/12 10:11:57;;;;;;;33.72;9.38;;;14.80;99.90;;;;;;4938830;29;20024;-72
2023/03/12 10:14:53;;;;;;;29.17;8.40;;;14.90;99.90;;;;;;4932372;29;20039;-72
2023/03/12 10:17:43;;;;;;;31.15;8.70;;;15.00;99.90;;;;;;4916927;29;20046;-71
2023/03/12 10:20:28;;;;;;;30.42;7.53;;;15.00;99.90;;;;;;4917411;29;20043;-72
2023/03/12 10:23:17;;;;;;;35.40;7.60;;;15.00;99.90;;;;;;4932092;29;20176;-72
2023/03/12 10:25:52;;;;;;;26.63;7.32;;;15.10;99.90;;;;;;4916297;29;20050;-72
2023/03/12 10:28:42;;;;;;;27.33;7.80;;;15.20;99.90;;;;;;4931315;29;20382;-72
2023/03/12 10:31:26;;;;;;;35.63;7.97;;;15.30;99.90;;;;;;4914162;29;20789;-72
2023/03/12 10:33:55;;;;;;;36.33;8.88;;;15.30;99.90;;;;;;4930156;29;20066;-72
2023/03/12 10:36:25;;;;;;;28.15;8.13;;;15.20;99.90;;;;;;4931452;29;20139;-72
2023/03/12 10:38:51;;;;;;;30.42;7.43;;;15.20;99.90;;;;;;4916294;29;20081;-71
2023/03/12 10:41:23;;;;;;;24.90;7.40;;;15.20;99.90;;;;;;4931620;29;20055;-72
2023/03/12 10:43:49;;;;;;;28.70;7.53;;;15.30;99.90;;;;;;4939255;29;20039;-72
2023/03/12 10:46:27;;;;;;;34.35;7.38;;;15.40;99.90;;;;;;4934117;29;20159;-72
2023/03/12 10:49:22;;;;;;;34.72;7.43;;;15.40;99.90;;;;;;4929917;29;20044;-72
2023/03/12 10:52:18;;;;;;;22.40;6.78;;;15.50;99.90;;;;;;4932565;29;20055;-71
2023/03/12 10:54:46;;;;;;;30.00;7.82;;;15.50;99.90;;;;;;4927841;29;20035;-72
2023/03/12 10:57:14;;;;;;;28.83;8.10;;;15.50;99.90;;;;;;4934843;29;20043;-72
2023/03/12 10:59:42;;;;;;;25.67;7.80;;;15.50;99.90;;;;;;4932483;29;20045;-72
2023/03/12 11:02:31;;;;;;;28.13;8.52;;;15.60;99.90;;;;;;4929048;28;20043;-72
2023/03/12 11:04:57;;;;;;;27.80;7.07;;;15.60;99.90;;;;;;4929882;29;20043;-71
2023/03/12 11:07:28;;;;;;;33.88;8.23;;;15.60;99.90;;;;;;4933579;29;20051;-72
2023/03/12 11:10:06;;;;;;;23.48;7.93;;;15.60;99.90;;;;;;4930420;29;20047;-72
2023/03/12 11:12:36;;;;;;;28.88;6.97;;;15.70;99.90;;;;;;4935199;29;20043;-72
2023/03/12 11:15:34;;;;;;;25.23;7.20;;;15.90;99.90;;;;;;4931603;28;20039;-70
2023/03/12 11:18:40;;;;;;;31.50;6.60;;;16.00;99.90;;;;;;4893448;29;20506;-72
2023/03/12 11:21:08;;;;;;;18.02;6.55;;;16.10;99.90;;;;;;4894443;29;20041;-71
2023/03/12 11:23:36;;;;;;;28.17;7.65;;;16.20;99.90;;;;;;4893958;29;20041;-72
2023/03/12 11:26:23;;;;;;;22.55;6.95;;;16.10;99.90;;;;;;4893971;29;20068;-71
2023/03/12 11:28:54;;;;;;;24.48;6.70;;;16.20;99.90;;;;;;4886626;29;20047;-71
2023/03/12 11:31:26;;;;;;;25.98;6.93;;;16.20;99.90;;;;;;4891534;29;20557;-71
2023/03/12 11:33:53;;;;;;;24.58;6.82;;;16.10;99.90;;;;;;4892023;29;20040;-71
2023/03/12 11:36:34;;;;;;;26.90;6.53;;;16.00;99.90;;;;;;4891927;29;20036;-71
2023/03/12 11:39:27;;;;;;;30.02;6.55;;;16.00;99.90;;;;;;4892912;29;20040;-71
2023/03/12 11:42:03;;;;;;;18.48;6.15;;;15.90;99.90;;;;;;4892959;29;20056;-71
2023/03/12 11:44:34;;;;;;;21.45;6.35;;;15.80;99.90;;;;;;4893379;29;20044;-71
2023/03/12 11:47:09;;;;;;;24.10;6.60;;;15.90;99.90;;;;;;4888160;29;20391;-72
2023/03/12 11:50:03;;;;;;;22.98;6.85;;;15.90;99.90;;;;;;4892310;29;20509;-72
2023/03/12 11:52:41;;;;;;;24.38;6.28;;;16.00;99.90;;;;;;4829793;29;20057;-72
2023/03/12 11:55:42;;;;;;;27.08;7.25;;;16.20;99.90;;;;;;4851186;29;20042;-72
2023/03/12 11:58:14;;;;;;;20.85;7.35;;;16.30;99.90;;;;;;4842688;29;20046;-72
2023/03/12 12:01:01;;;;;;;25.70;6.55;;;16.30;99.90;;;;;;4859156;29;20045;-72
2023/03/12 12:03:54;;;;;;;25.42;7.00;;;16.30;99.90;;;;;;4860875;29;20052;-72
2023/03/12 12:07:02;;;;;;;27.15;7.15;;;16.40;99.90;;;;;;4859895;29;20049;-72
2023/03/12 12:09:35;;;;;;;23.75;6.80;;;16.50;99.90;;;;;;4841159;29;20061;-72
2023/03/12 12:12:31;;;;;;;28.33;7.75;;;16.60;99.90;;;;;;4847457;29;20529;-71
2023/03/12 12:15:33;;;;;;;22.95;8.13;;;16.60;99.90;;;;;;4822114;29;20037;-72
2023/03/12 12:18:20;;;;;;;19.08;6.93;;;16.70;99.90;;;;;;4833823;29;20038;-72
2023/03/12 12:21:06;;;;;;;21.08;6.10;;;16.60;99.90;;;;;;4837157;29;20042;-71
2023/03/12 12:23:54;;;;;;;19.90;6.57;;;16.50;99.90;;;;;;4834634;29;20141;-71
2023/03/12 12:26:23;;;;;;;22.10;7.35;;;16.40;99.90;;;;;;4840155;29;20566;-72
2023/03/12 12:29:13;;;;;;;19.70;6.53;;;16.50;99.90;;;;;;4851605;29;20032;-72
2023/03/12 12:32:06;;;;;;;25.00;9.23;;;16.80;99.90;;;;;;4884188;29;20060;-72
2023/03/12 12:34:53;;;;;;;19.80;7.28;;;17.00;99.90;;;;;;4879164;29;20044;-72
2023/03/12 12:38:13;;;;;;;23.55;7.82;;;17.10;99.90;;;;;;4879091;29;20136;-72
2023/03/12 12:40:44;;;;;;;22.23;7.97;;;17.30;99.90;;;;;;4903096;29;20466;-72
2023/03/12 12:43:28;;;;;;;;;;;17.40;99.90;;;;;;4880820;29;20055;-72
2023/03/12 12:45:57;;;;;;;22.77;6.07;;;17.60;99.90;;;;;;4893222;29;19969;-72